createdAt,value
2022-11-14T00:00:58.251Z,28.20
2022-11-14T00:02:20.169Z,30.45
2022-11-14T00:03:41.642Z,33.30
2022-11-14T00:05:04.636Z,29.05
2022-11-14T00:06:26.129Z,24.90
2022-11-14T00:07:48.049Z,29.10
2022-11-14T00:09:09.338Z,27.95
2022-11-14T00:10:30.906Z,25.55
2022-11-14T00:11:52.571Z,26.25
2022-11-14T00:13:15.351Z,24.02
2022-11-14T00:14:37.474Z,25.30
2022-11-14T00:15:58.854Z,23.35
2022-11-14T00:17:20.188Z,24.02
2022-11-14T00:18:41.914Z,25.83
2022-11-14T00:20:05.018Z,28.15
2022-11-14T00:21:26.288Z,27.83
2022-11-14T00:22:48.030Z,28.98
2022-11-14T00:24:09.590Z,26.38
2022-11-14T00:25:32.505Z,26.20
2022-11-14T00:26:54.082Z,23.27
2022-11-14T00:28:16.139Z,26.15
2022-11-14T00:29:38.731Z,27.92
2022-11-14T00:31:00.396Z,33.28
2022-11-14T00:32:22.685Z,27.00
2022-11-14T00:33:43.895Z,26.15
2022-11-14T00:35:06.331Z,29.42
2022-11-14T00:36:27.910Z,27.92
2022-11-14T00:37:50.064Z,23.60
2022-11-14T00:39:15.415Z,28.55
2022-11-14T00:40:36.984Z,30.02
2022-11-14T00:41:58.595Z,25.60
2022-11-14T00:43:20.320Z,27.90
2022-11-14T00:44:42.031Z,26.48
2022-11-14T00:46:03.593Z,26.85
2022-11-14T00:47:25.040Z,23.10
2022-11-14T00:48:46.655Z,31.08
2022-11-14T00:50:08.504Z,31.80
2022-11-14T00:51:30.197Z,30.38
2022-11-14T00:52:51.909Z,29.90
2022-11-14T00:54:13.632Z,32.33
2022-11-14T00:55:35.472Z,32.78
2022-11-14T00:56:57.093Z,25.15
2022-11-14T00:58:18.787Z,26.60
2022-11-14T00:59:40.276Z,28.80
2022-11-14T01:01:01.578Z,25.25
2022-11-14T01:02:23.468Z,22.25
2022-11-14T01:03:49.602Z,27.30
2022-11-14T01:05:10.969Z,23.90
2022-11-14T01:06:32.512Z,24.52
2022-11-14T01:07:54.750Z,23.27
2022-11-14T01:09:16.395Z,24.52
2022-11-14T01:10:43.578Z,21.33
2022-11-14T01:12:05.693Z,19.98
2022-11-14T01:13:32.243Z,19.98
2022-11-14T01:14:54.045Z,20.33
2022-11-14T01:16:15.448Z,23.75
2022-11-14T01:17:37.112Z,23.35
2022-11-14T01:18:58.785Z,22.33
2022-11-14T01:20:20.452Z,23.70
2022-11-14T01:21:41.902Z,16.85
2022-11-14T01:23:03.484Z,19.27
2022-11-14T01:24:24.589Z,16.02
2022-11-14T01:25:46.803Z,20.25
2022-11-14T01:27:08.480Z,18.90
2022-11-14T01:28:30.987Z,18.77
2022-11-14T01:29:53.056Z,23.33
2022-11-14T01:31:21.603Z,19.52
2022-11-14T01:32:42.984Z,18.63
2022-11-14T01:34:04.599Z,16.73
2022-11-14T01:35:26.508Z,16.13
2022-11-14T01:36:48.150Z,19.77
2022-11-14T01:38:14.742Z,17.00
2022-11-14T01:39:35.948Z,16.92
2022-11-14T01:40:57.235Z,18.20
2022-11-14T01:42:21.975Z,18.80
2022-11-14T01:43:46.024Z,18.70
2022-11-14T01:45:59.494Z,22.85
2022-11-14T01:47:33.357Z,15.95
2022-11-14T01:49:03.584Z,19.05
2022-11-14T01:50:26.443Z,16.95
2022-11-14T01:52:03.748Z,17.83
2022-11-14T01:53:26.546Z,18.08
2022-11-14T01:54:55.449Z,18.92
2022-11-14T01:56:40.728Z,20.05
2022-11-14T01:58:02.608Z,22.02
2022-11-14T01:59:33.076Z,16.23
2022-11-14T02:00:55.646Z,14.73
2022-11-14T02:02:21.749Z,14.88
2022-11-14T02:03:46.185Z,15.52
2022-11-14T02:05:13.012Z,13.13
2022-11-14T02:06:36.494Z,15.85
2022-11-14T02:07:58.643Z,13.80
2022-11-14T02:09:20.325Z,14.77
2022-11-14T02:10:42.213Z,14.32
2022-11-14T02:12:08.909Z,15.90
2022-11-14T02:13:30.602Z,15.57
2022-11-14T02:14:56.210Z,14.07
2022-11-14T02:16:17.508Z,13.32
2022-11-14T02:17:40.321Z,14.48
2022-11-14T02:19:01.775Z,11.43
2022-11-14T02:20:32.592Z,17.05
2022-11-14T02:21:54.311Z,12.00
2022-11-14T02:23:25.037Z,14.07
2022-11-14T02:24:46.881Z,16.08
2022-11-14T02:26:08.271Z,16.15
2022-11-14T02:27:33.029Z,11.02
2022-11-14T02:28:56.461Z,16.52
2022-11-14T02:30:23.298Z,14.93
2022-11-14T02:31:44.940Z,13.98
2022-11-14T02:33:11.209Z,14.95
2022-11-14T02:34:33.837Z,14.15
2022-11-14T02:35:55.615Z,12.50
2022-11-14T02:37:16.892Z,13.80
2022-11-14T02:38:38.167Z,11.30
2022-11-14T02:39:59.710Z,10.68
2022-11-14T02:41:21.526Z,15.93
2022-11-14T02:42:43.286Z,13.82
2022-11-14T02:44:05.087Z,13.27
2022-11-14T02:45:27.012Z,14.02
2022-11-14T02:46:48.904Z,16.45
2022-11-14T02:48:10.663Z,14.63
2022-11-14T02:49:32.523Z,17.58
2022-11-14T02:50:53.907Z,15.20
2022-11-14T02:52:15.332Z,12.48
2022-11-14T02:53:36.755Z,13.30
2022-11-14T02:54:58.521Z,14.10
2022-11-14T02:56:20.273Z,16.08
2022-11-14T02:57:41.777Z,15.48
2022-11-14T02:59:03.519Z,22.55
2022-11-14T03:00:25.077Z,12.82
2022-11-14T03:01:46.758Z,14.63
2022-11-14T03:03:08.568Z,14.23
2022-11-14T03:04:30.104Z,17.65
2022-11-14T03:05:53.491Z,13.70
2022-11-14T03:07:14.984Z,14.88
2022-11-14T03:08:36.401Z,17.08
2022-11-14T03:09:58.093Z,17.38
2022-11-14T03:11:19.491Z,21.85
2022-11-14T03:12:41.229Z,15.43
2022-11-14T03:14:02.767Z,19.77
2022-11-14T03:15:25.025Z,16.50
2022-11-14T03:16:46.395Z,18.10
2022-11-14T03:18:07.786Z,17.00
2022-11-14T03:19:29.314Z,17.70
2022-11-14T03:20:50.582Z,18.40
2022-11-14T03:22:12.256Z,17.73
2022-11-14T03:23:34.101Z,18.20
2022-11-14T03:24:55.934Z,16.48
2022-11-14T03:26:17.571Z,21.20
2022-11-14T03:27:39.092Z,21.73
2022-11-14T03:29:00.549Z,17.33
2022-11-14T03:30:22.279Z,19.92
2022-11-14T03:31:43.736Z,17.13
2022-11-14T03:33:05.294Z,15.95
2022-11-14T03:34:26.997Z,28.55
2022-11-14T03:35:51.406Z,16.85
2022-11-14T03:37:12.863Z,16.50
2022-11-14T03:38:35.921Z,14.98
2022-11-14T03:39:57.736Z,19.02
2022-11-14T03:41:19.229Z,22.10
2022-11-14T03:42:40.704Z,18.00
2022-11-14T03:44:02.197Z,18.15
2022-11-14T03:45:23.605Z,20.17
2022-11-14T03:46:45.523Z,19.50
2022-11-14T03:48:07.438Z,26.90
2022-11-14T03:49:29.085Z,18.48
2022-11-14T03:50:50.471Z,18.25
2022-11-14T03:52:12.708Z,21.63
2022-11-14T03:53:34.150Z,16.63
2022-11-14T03:54:55.720Z,19.00
2022-11-14T03:56:17.059Z,19.58
2022-11-14T03:57:38.766Z,19.08
2022-11-14T03:59:00.200Z,23.55
2022-11-14T04:00:21.721Z,17.63
2022-11-14T04:01:43.098Z,19.17
2022-11-14T04:03:05.143Z,22.20
2022-11-14T04:04:26.646Z,18.30
2022-11-14T04:05:48.988Z,21.77
2022-11-14T04:07:11.210Z,19.67
2022-11-14T04:08:33.523Z,23.55
2022-11-14T04:09:55.167Z,20.30
2022-11-14T04:11:16.438Z,19.55
2022-11-14T04:12:37.952Z,18.73
2022-11-14T04:13:59.704Z,21.40
2022-11-14T04:15:21.236Z,17.77
2022-11-14T04:16:42.597Z,19.23
2022-11-14T04:18:04.355Z,19.02
2022-11-14T04:19:25.749Z,20.92
2022-11-14T04:20:47.063Z,17.52
2022-11-14T04:22:09.023Z,19.88
2022-11-14T04:23:30.324Z,19.38
2022-11-14T04:24:51.770Z,21.85
2022-11-14T04:26:13.029Z,15.82
2022-11-14T04:27:35.138Z,24.63
2022-11-14T04:28:56.705Z,20.05
2022-11-14T04:30:18.296Z,19.92
2022-11-14T04:31:39.567Z,23.13
2022-11-14T04:33:01.241Z,16.35
2022-11-14T04:34:22.692Z,20.23
2022-11-14T04:35:44.507Z,18.05
2022-11-14T04:37:11.453Z,16.77
2022-11-14T04:38:33.440Z,17.73
2022-11-14T04:39:58.809Z,17.85
2022-11-14T04:41:20.351Z,22.45
2022-11-14T04:42:41.841Z,15.02
2022-11-14T04:44:03.563Z,13.98
2022-11-14T04:45:25.275Z,13.43
2022-11-14T04:46:46.895Z,15.00
2022-11-14T04:48:08.322Z,16.02
2022-11-14T04:49:30.025Z,12.07
2022-11-14T04:50:51.959Z,12.02
2022-11-14T04:52:13.154Z,15.10
2022-11-14T04:53:34.648Z,13.50
2022-11-14T04:54:56.248Z,14.10
2022-11-14T04:56:18.268Z,13.65
2022-11-14T04:57:39.646Z,14.70
2022-11-14T04:59:01.016Z,15.77
2022-11-14T05:00:23.267Z,13.45
2022-11-14T05:01:44.732Z,14.13
2022-11-14T05:03:06.466Z,14.38
2022-11-14T05:04:28.609Z,11.73
2022-11-14T05:05:50.676Z,12.68
2022-11-14T05:07:12.305Z,15.25
2022-11-14T05:08:34.560Z,23.50
2022-11-14T05:09:56.172Z,15.00
2022-11-14T05:11:23.193Z,9.32
2022-11-14T05:12:48.203Z,12.60
2022-11-14T05:14:09.890Z,14.05
2022-11-14T05:15:31.738Z,13.23
2022-11-14T05:16:53.562Z,9.65
2022-11-14T05:18:14.867Z,13.88
2022-11-14T05:19:36.234Z,12.93
2022-11-14T05:21:01.464Z,12.15
2022-11-14T05:22:23.365Z,12.32
2022-11-14T05:23:44.943Z,13.32
2022-11-14T05:25:07.725Z,13.75
2022-11-14T05:26:29.178Z,12.15
2022-11-14T05:27:50.790Z,11.18
2022-11-14T05:29:12.218Z,12.63
2022-11-14T05:30:33.692Z,13.32
2022-11-14T05:31:55.291Z,16.75
2022-11-14T05:33:17.068Z,11.95
2022-11-14T05:34:38.740Z,12.25
2022-11-14T05:36:09.396Z,14.88
2022-11-14T05:37:30.968Z,11.00
2022-11-14T05:38:52.283Z,11.75
2022-11-14T05:40:13.967Z,11.60
2022-11-14T05:41:35.506Z,10.57
2022-11-14T05:42:57.021Z,16.88
2022-11-14T05:44:18.692Z,10.40
2022-11-14T05:45:40.013Z,9.82
2022-11-14T05:47:01.722Z,10.05
2022-11-14T05:48:23.657Z,11.13
2022-11-14T05:49:44.963Z,12.15
2022-11-14T05:51:08.406Z,11.10
2022-11-14T05:52:30.554Z,14.10
2022-11-14T05:53:52.325Z,10.55
2022-11-14T05:55:13.807Z,8.55
2022-11-14T05:56:35.241Z,12.32
2022-11-14T05:57:59.938Z,8.45
2022-11-14T05:59:21.697Z,10.73
2022-11-14T06:00:50.792Z,7.45
2022-11-14T06:02:15.186Z,6.50
2022-11-14T06:03:40.311Z,7.82
2022-11-14T06:05:02.062Z,7.82
2022-11-14T06:06:23.414Z,8.80
2022-11-14T06:07:44.859Z,7.95
2022-11-14T06:09:06.206Z,8.00
2022-11-14T06:10:28.772Z,8.25
2022-11-14T06:11:50.571Z,11.45
2022-11-14T06:13:11.944Z,8.27
2022-11-14T06:14:33.585Z,7.18
2022-11-14T06:16:00.877Z,7.00
2022-11-14T06:17:22.631Z,8.15
2022-11-14T06:18:44.502Z,8.65
2022-11-14T06:20:07.062Z,8.60
2022-11-14T06:21:28.784Z,6.05
2022-11-14T06:22:53.737Z,7.10
2022-11-14T06:24:15.492Z,6.80
2022-11-14T06:25:36.879Z,6.78
2022-11-14T06:26:58.735Z,9.43
2022-11-14T06:28:20.379Z,10.48
2022-11-14T06:29:42.279Z,6.00
2022-11-14T06:31:05.224Z,9.10
2022-11-14T06:32:26.857Z,6.30
2022-11-14T06:33:49.340Z,8.82
2022-11-14T06:35:10.961Z,7.05
2022-11-14T06:36:32.537Z,8.30
2022-11-14T06:37:54.322Z,7.60
2022-11-14T06:39:15.674Z,6.50
2022-11-14T06:40:37.407Z,10.10
2022-11-14T06:41:58.994Z,9.18
2022-11-14T06:43:20.988Z,10.38
2022-11-14T06:44:42.582Z,5.93
2022-11-14T06:46:06.291Z,9.63
2022-11-14T06:47:27.780Z,5.90
2022-11-14T06:48:51.463Z,8.57
2022-11-14T06:50:13.308Z,6.10
2022-11-14T06:51:34.796Z,7.80
2022-11-14T06:52:58.762Z,7.72
2022-11-14T06:54:20.605Z,7.65
2022-11-14T06:55:42.073Z,8.00
2022-11-14T06:57:03.677Z,6.93
2022-11-14T06:58:31.510Z,8.50
2022-11-14T06:59:53.631Z,8.20
2022-11-14T07:01:22.241Z,6.75
2022-11-14T07:02:47.372Z,8.38
2022-11-14T07:04:12.115Z,8.27
2022-11-14T07:05:33.591Z,7.35
2022-11-14T07:06:55.489Z,7.68
2022-11-14T07:08:20.786Z,6.60
2022-11-14T07:09:42.761Z,7.65
2022-11-14T07:11:07.972Z,10.48
2022-11-14T07:12:31.015Z,7.38
2022-11-14T07:14:00.898Z,8.23
2022-11-14T07:15:22.549Z,7.18
2022-11-14T07:16:43.961Z,7.82
2022-11-14T07:18:05.987Z,9.95
2022-11-14T07:19:27.746Z,8.73
2022-11-14T07:20:49.597Z,7.40
2022-11-14T07:22:11.238Z,9.45
2022-11-14T07:23:34.444Z,11.50
2022-11-14T07:24:55.894Z,10.50
2022-11-14T07:26:17.230Z,13.80
2022-11-14T07:27:38.797Z,7.53
2022-11-14T07:29:02.444Z,9.13
2022-11-14T07:30:24.545Z,8.60
2022-11-14T07:31:45.989Z,7.90
2022-11-14T07:33:07.537Z,6.35
2022-11-14T07:34:28.929Z,6.78
2022-11-14T07:35:51.861Z,8.75
2022-11-14T07:37:13.196Z,11.65
2022-11-14T07:38:36.289Z,9.80
2022-11-14T07:39:57.866Z,7.60
2022-11-14T07:41:19.851Z,7.20
2022-11-14T07:42:41.572Z,11.18
2022-11-14T07:44:02.822Z,8.02
2022-11-14T07:45:24.064Z,9.35
2022-11-14T07:46:45.706Z,6.90
2022-11-14T07:48:07.065Z,7.20
2022-11-14T07:49:28.459Z,7.85
2022-11-14T07:50:49.834Z,7.70
2022-11-14T07:52:11.118Z,6.55
2022-11-14T07:53:32.948Z,8.95
2022-11-14T07:54:54.212Z,9.75
2022-11-14T07:56:17.312Z,8.30
2022-11-14T07:57:42.827Z,7.63
2022-11-14T07:59:07.254Z,9.38
2022-11-14T08:00:29.048Z,7.43
2022-11-14T08:01:50.619Z,8.57
2022-11-14T08:03:12.369Z,8.00
2022-11-14T08:04:33.794Z,8.93
2022-11-14T08:06:07.812Z,6.55
2022-11-14T08:07:29.169Z,7.80
2022-11-14T08:08:50.975Z,7.28
2022-11-14T08:10:14.296Z,6.63
2022-11-14T08:11:50.794Z,11.05
2022-11-14T08:14:54.295Z,10.02
2022-11-14T08:16:15.995Z,11.00
2022-11-14T08:17:38.060Z,12.80
2022-11-14T08:18:59.738Z,7.70
2022-11-14T08:20:21.064Z,7.22
2022-11-14T08:21:44.144Z,6.63
2022-11-14T08:23:09.898Z,5.75
2022-11-14T08:24:31.153Z,7.25
2022-11-14T08:25:52.835Z,12.32
2022-11-14T08:27:14.439Z,7.90
2022-11-14T08:28:36.232Z,8.80
2022-11-14T08:29:57.836Z,8.50
2022-11-14T08:31:19.146Z,7.70
2022-11-14T08:32:40.638Z,6.60
2022-11-14T08:34:02.568Z,9.80
2022-11-14T08:35:24.481Z,7.53
2022-11-14T08:36:46.235Z,4.68
2022-11-14T08:38:07.724Z,6.90
2022-11-14T08:39:29.712Z,11.35
2022-11-14T08:40:51.203Z,6.50
2022-11-14T08:42:12.818Z,7.25
2022-11-14T08:43:34.533Z,7.07
2022-11-14T08:44:56.020Z,7.80
2022-11-14T08:46:17.508Z,15.63
2022-11-14T08:47:38.874Z,6.43
2022-11-14T08:49:00.079Z,6.28
2022-11-14T08:50:21.581Z,6.63
2022-11-14T08:51:43.239Z,7.50
2022-11-14T08:53:04.765Z,8.18
2022-11-14T08:54:26.245Z,5.43
2022-11-14T08:55:48.823Z,7.93
2022-11-14T08:57:12.000Z,5.95
2022-11-14T08:58:33.979Z,5.72
2022-11-14T08:59:55.946Z,9.50
2022-11-14T09:01:17.484Z,9.88
2022-11-14T09:02:39.483Z,7.68
2022-11-14T09:04:01.671Z,5.85
2022-11-14T09:05:23.361Z,5.47
2022-11-14T09:06:46.491Z,5.75
2022-11-14T09:08:08.690Z,6.53
2022-11-14T09:09:30.415Z,10.40
2022-11-14T09:10:52.110Z,6.15
2022-11-14T09:12:14.650Z,5.68
2022-11-14T09:13:36.194Z,6.93
2022-11-14T09:14:57.791Z,5.93
2022-11-14T09:16:19.515Z,5.05
2022-11-14T09:17:41.079Z,4.53
2022-11-14T09:19:02.463Z,5.22
2022-11-14T09:20:30.264Z,5.70
2022-11-14T09:21:54.695Z,6.55
2022-11-14T09:23:16.049Z,6.72
2022-11-14T09:24:37.660Z,12.80
2022-11-14T09:26:03.823Z,5.35
2022-11-14T09:27:27.824Z,5.75
2022-11-14T09:28:49.881Z,6.32
2022-11-14T09:30:12.814Z,9.32
2022-11-14T09:31:34.127Z,4.15
2022-11-14T09:33:02.829Z,5.95
2022-11-14T09:34:27.250Z,10.88
2022-11-14T09:35:48.598Z,5.72
2022-11-14T09:37:10.291Z,6.75
2022-11-14T09:38:37.975Z,4.40
2022-11-14T09:39:59.920Z,7.18
2022-11-14T09:41:54.803Z,5.22
2022-11-14T09:43:49.388Z,5.45
2022-11-14T09:45:17.271Z,7.30
2022-11-14T09:46:46.283Z,4.68
2022-11-14T09:48:16.360Z,6.20
2022-11-14T09:49:44.712Z,7.43
2022-11-14T09:51:47.484Z,5.95
2022-11-14T09:53:47.710Z,4.88
2022-11-14T09:55:17.426Z,5.97
2022-11-14T09:56:38.952Z,4.40
2022-11-14T09:58:03.530Z,5.93
2022-11-14T09:59:25.232Z,4.28
2022-11-14T10:01:09.270Z,5.30
2022-11-14T10:03:19.070Z,4.30
2022-11-14T10:05:22.120Z,5.57
2022-11-14T10:07:03.059Z,5.00
2022-11-14T10:08:41.863Z,5.55
2022-11-14T10:10:27.327Z,5.45
2022-11-14T10:12:14.338Z,5.28
2022-11-14T10:14:02.644Z,6.97
2022-11-14T10:15:41.984Z,6.32
2022-11-14T10:17:20.899Z,3.58
2022-11-14T10:19:21.792Z,6.82
2022-11-14T10:21:19.268Z,5.82
2022-11-14T10:23:23.271Z,5.25
2022-11-14T10:25:31.274Z,3.90
2022-11-14T10:27:22.506Z,4.50
2022-11-14T10:31:02.912Z,5.82
2022-11-14T10:33:03.682Z,8.23
2022-11-14T10:34:30.917Z,6.05
2022-11-14T10:36:07.687Z,6.47
2022-11-14T10:37:56.147Z,6.20
2022-11-14T10:39:42.364Z,10.23
2022-11-14T10:41:07.132Z,6.75
2022-11-14T10:42:41.628Z,6.47
2022-11-14T10:44:03.873Z,6.72
2022-11-14T10:45:52.501Z,6.05
2022-11-14T10:47:18.899Z,6.63
2022-11-14T10:48:47.408Z,4.90
2022-11-14T10:50:50.060Z,5.93
2022-11-14T10:52:20.635Z,8.88
2022-11-14T10:54:04.426Z,6.03
2022-11-14T10:55:57.295Z,7.90
2022-11-14T10:57:22.369Z,5.05
2022-11-14T10:58:49.039Z,5.72
2022-11-14T11:00:18.397Z,4.90
2022-11-14T11:01:55.364Z,5.22
2022-11-14T11:03:16.731Z,5.00
2022-11-14T11:04:44.470Z,6.65
2022-11-14T11:06:06.301Z,5.85
2022-11-14T11:07:45.924Z,6.78
2022-11-14T11:09:31.569Z,8.25
2022-11-14T11:11:18.076Z,8.10
2022-11-14T11:12:51.484Z,7.32
2022-11-14T11:14:19.574Z,6.13
2022-11-14T11:15:42.852Z,9.55
2022-11-14T11:17:21.147Z,7.50
2022-11-14T11:18:42.572Z,5.68
2022-11-14T11:20:38.726Z,6.63
2022-11-14T11:22:00.171Z,6.95
2022-11-14T11:23:28.052Z,5.53
2022-11-14T11:24:49.772Z,7.13
2022-11-14T11:26:28.636Z,6.78
2022-11-14T11:28:05.515Z,6.82
2022-11-14T11:29:26.917Z,7.35
2022-11-14T11:31:00.594Z,5.15
2022-11-14T11:32:26.715Z,4.60
2022-11-14T11:33:48.162Z,6.82
2022-11-14T11:35:17.812Z,5.90
2022-11-14T11:36:50.722Z,6.10
2022-11-14T11:38:15.727Z,5.22
2022-11-14T11:40:01.282Z,5.30
2022-11-14T11:43:57.214Z,4.85
2022-11-14T11:45:20.221Z,5.53
2022-11-14T11:47:14.679Z,7.88
2022-11-14T11:48:40.426Z,5.75
2022-11-14T11:50:03.046Z,5.63
2022-11-14T11:51:27.079Z,6.40
2022-11-14T11:52:57.775Z,5.78
2022-11-14T11:54:24.080Z,6.00
2022-11-14T11:56:09.811Z,4.78
2022-11-14T11:57:43.031Z,4.50
2022-11-14T11:59:38.992Z,6.07
2022-11-14T12:01:00.544Z,7.50
2022-11-14T12:02:26.954Z,7.32
2022-11-14T12:03:53.483Z,5.78
2022-11-14T12:05:31.342Z,6.50
2022-11-14T12:07:12.035Z,6.55
2022-11-14T12:09:02.384Z,5.80
2022-11-14T12:10:30.259Z,5.10
2022-11-14T12:12:04.903Z,4.15
2022-11-14T12:13:48.441Z,5.05
2022-11-14T12:15:24.325Z,6.47
2022-11-14T12:17:26.559Z,6.00
2022-11-14T12:19:24.273Z,4.22
2022-11-14T12:20:48.549Z,4.72
2022-11-14T12:22:35.663Z,4.25
2022-11-14T12:24:24.950Z,4.40
2022-11-14T12:26:23.765Z,7.78
2022-11-14T12:28:09.697Z,6.03
2022-11-14T12:30:01.708Z,9.65
2022-11-14T12:31:24.000Z,10.18
2022-11-14T12:33:34.678Z,12.50
2022-11-14T12:34:58.936Z,12.68
2022-11-14T12:36:28.992Z,15.15
2022-11-14T12:37:56.000Z,10.45
2022-11-14T12:39:30.480Z,6.95
2022-11-14T12:40:57.463Z,10.57
2022-11-14T12:42:22.040Z,11.93
2022-11-14T12:43:44.120Z,11.30
2022-11-14T12:45:40.465Z,9.90
2022-11-14T12:47:07.568Z,10.85
2022-11-14T12:48:35.546Z,9.52
2022-11-14T12:50:00.849Z,8.25
2022-11-14T12:51:25.518Z,10.85
2022-11-14T12:52:49.758Z,9.40
2022-11-14T12:54:50.137Z,9.90
2022-11-14T12:56:30.888Z,8.70
2022-11-14T12:58:09.212Z,10.02
2022-11-14T12:59:54.115Z,10.15
2022-11-14T13:01:15.403Z,9.23
2022-11-14T13:02:59.650Z,6.93
2022-11-14T13:05:09.395Z,10.07
2022-11-14T13:06:57.373Z,6.63
2022-11-14T13:08:34.592Z,7.65
2022-11-14T13:10:32.044Z,6.45
2022-11-14T13:12:12.226Z,5.10
2022-11-14T13:14:20.127Z,6.65
2022-11-14T13:16:13.442Z,5.35
2022-11-14T13:17:53.349Z,7.13
2022-11-14T13:19:40.380Z,6.22
2022-11-14T13:21:38.646Z,5.38
2022-11-14T13:23:04.674Z,5.35
2022-11-14T13:24:26.392Z,5.57
2022-11-14T13:25:47.821Z,5.65
2022-11-14T13:27:52.114Z,10.13
2022-11-14T13:29:40.636Z,5.60
2022-11-14T13:31:06.177Z,5.20
2022-11-14T13:32:42.647Z,4.35
2022-11-14T13:34:36.240Z,6.50
2022-11-14T13:36:05.004Z,6.82
2022-11-14T13:38:04.091Z,6.25
2022-11-14T13:40:09.644Z,7.05
2022-11-14T13:42:05.300Z,5.38
2022-11-14T13:43:52.795Z,6.95
2022-11-14T13:45:20.176Z,12.65
2022-11-14T13:47:18.783Z,9.32
2022-11-14T13:49:15.406Z,9.43
2022-11-14T13:50:38.334Z,15.23
2022-11-14T13:52:00.351Z,17.50
2022-11-14T13:53:29.888Z,14.68
2022-11-14T13:54:52.286Z,14.80
2022-11-14T13:56:31.206Z,14.57
2022-11-14T13:58:36.110Z,18.33
2022-11-14T14:00:07.362Z,18.13
2022-11-14T14:01:49.939Z,16.25
2022-11-14T14:03:54.840Z,15.88
2022-11-14T14:05:55.591Z,20.35
2022-11-14T14:07:45.855Z,15.68
2022-11-14T14:09:27.484Z,16.80
2022-11-14T14:11:25.060Z,16.00
2022-11-14T14:13:22.475Z,15.25
2022-11-14T14:15:09.659Z,14.70
2022-11-14T14:16:57.713Z,12.15
2022-11-14T14:18:40.035Z,20.00
2022-11-14T14:20:45.739Z,14.85
2022-11-14T14:22:35.025Z,16.02
2022-11-14T14:24:03.678Z,19.88
2022-11-14T14:25:54.159Z,21.05
2022-11-14T14:27:40.049Z,19.75
2022-11-14T14:29:32.564Z,20.17
2022-11-14T14:31:07.803Z,21.95
2022-11-14T14:32:29.932Z,23.17
2022-11-14T14:33:52.896Z,24.40
2022-11-14T14:35:27.439Z,22.65
2022-11-14T14:36:53.654Z,22.08
2022-11-14T14:38:26.018Z,22.20
2022-11-14T14:40:02.875Z,19.13
2022-11-14T14:41:26.222Z,29.05
2022-11-14T14:42:49.260Z,23.13
2022-11-14T14:44:26.828Z,25.90
2022-11-14T14:45:53.337Z,24.08
2022-11-14T14:47:32.463Z,25.15
2022-11-14T14:48:54.550Z,24.48
2022-11-14T14:50:26.705Z,27.75
2022-11-14T14:51:48.314Z,24.52
2022-11-14T14:53:22.919Z,24.35
2022-11-14T14:54:55.856Z,27.80
2022-11-14T14:56:27.122Z,23.20
2022-11-14T14:57:49.082Z,24.95
2022-11-14T14:59:25.181Z,23.70
2022-11-14T15:01:14.845Z,27.20
2022-11-14T15:02:36.837Z,27.50
2022-11-14T15:04:14.396Z,24.23
2022-11-14T15:05:36.233Z,26.55
2022-11-14T15:06:58.394Z,21.33
2022-11-14T15:08:20.578Z,26.15
2022-11-14T15:10:02.583Z,24.30
2022-11-14T15:11:27.337Z,25.15
2022-11-14T15:12:53.732Z,22.88
2022-11-14T15:14:32.043Z,26.52
2022-11-14T15:15:54.247Z,26.00
2022-11-14T15:17:16.503Z,24.70
2022-11-14T15:18:38.367Z,28.00
2022-11-14T15:20:00.386Z,28.65
2022-11-14T15:21:24.611Z,26.40
2022-11-14T15:23:11.160Z,27.63
2022-11-14T15:24:33.038Z,25.95
2022-11-14T15:26:06.245Z,30.67
2022-11-14T15:27:27.922Z,27.77
2022-11-14T15:28:49.601Z,34.22
2022-11-14T15:30:24.074Z,29.08
2022-11-14T15:31:53.607Z,31.83
2022-11-14T15:33:33.967Z,28.17
2022-11-14T15:35:25.655Z,27.98
2022-11-14T15:37:26.276Z,31.05
2022-11-14T15:39:28.000Z,30.48
2022-11-14T15:42:46.014Z,34.33
2022-11-14T15:44:34.229Z,31.65
2022-11-14T15:45:56.532Z,28.77
2022-11-14T15:47:36.239Z,35.72
2022-11-14T15:48:58.357Z,37.05
2022-11-14T15:50:34.867Z,27.17
2022-11-14T15:52:02.795Z,32.08
2022-11-14T15:53:28.068Z,27.83
2022-11-14T15:54:50.129Z,29.65
2022-11-14T15:56:15.926Z,27.90
2022-11-14T15:57:38.319Z,25.85
2022-11-14T15:59:00.036Z,30.00
2022-11-14T16:00:21.980Z,28.77
2022-11-14T16:01:46.883Z,24.08
2022-11-14T16:03:12.531Z,26.35
2022-11-14T16:04:37.933Z,22.80
2022-11-14T16:06:01.661Z,26.30
2022-11-14T16:07:23.595Z,23.83
2022-11-14T16:08:45.284Z,28.92
2022-11-14T16:10:21.557Z,30.67
2022-11-14T16:11:44.143Z,20.70
2022-11-14T16:13:06.288Z,24.33
2022-11-14T16:14:27.752Z,23.95
2022-11-14T16:15:49.158Z,24.35
2022-11-14T16:17:18.630Z,21.05
2022-11-14T16:18:40.138Z,17.25
2022-11-14T16:20:04.859Z,19.42
2022-11-14T16:21:26.435Z,19.55
2022-11-14T16:22:50.205Z,19.88
2022-11-14T16:24:17.191Z,18.65
2022-11-14T16:25:38.972Z,20.70
2022-11-14T16:27:00.685Z,15.70
2022-11-14T16:28:22.697Z,20.30
2022-11-14T16:29:44.316Z,17.67
2022-11-14T16:31:14.948Z,20.48
2022-11-14T16:32:36.545Z,18.67
2022-11-14T16:33:58.100Z,19.52
2022-11-14T16:35:25.975Z,16.17
2022-11-14T16:36:48.762Z,17.63
2022-11-14T16:38:14.068Z,13.63
2022-11-14T16:39:38.029Z,15.57
2022-11-14T16:41:00.475Z,14.70
2022-11-14T16:42:22.173Z,16.55
2022-11-14T16:43:43.746Z,16.80
2022-11-14T16:45:06.207Z,14.60
2022-11-14T16:46:27.787Z,16.52
2022-11-14T16:47:50.317Z,14.20
2022-11-14T16:49:17.533Z,16.00
2022-11-14T16:50:39.435Z,15.82
2022-11-14T16:52:05.579Z,13.63
2022-11-14T16:53:27.084Z,13.30
2022-11-14T16:54:49.049Z,16.00
2022-11-14T16:56:13.669Z,12.70
2022-11-14T16:57:37.203Z,14.98
2022-11-14T16:58:58.888Z,15.57
2022-11-14T17:00:20.573Z,18.15
2022-11-14T17:01:42.722Z,16.55
2022-11-14T17:03:04.497Z,16.10
2022-11-14T17:04:26.122Z,21.77
2022-11-14T17:05:52.472Z,18.95
2022-11-14T17:07:15.867Z,18.88
2022-11-14T17:08:40.598Z,13.90
2022-11-14T17:10:02.465Z,15.13
2022-11-14T17:11:25.631Z,17.10
2022-11-14T17:12:47.226Z,15.85
2022-11-14T17:14:08.738Z,18.58
2022-11-14T17:15:31.835Z,15.95
2022-11-14T17:16:53.613Z,19.23
2022-11-14T17:18:14.953Z,17.55
2022-11-14T17:19:36.466Z,17.25
2022-11-14T17:20:57.915Z,17.58
2022-11-14T17:22:22.488Z,19.90
2022-11-14T17:23:43.978Z,18.27
2022-11-14T17:25:05.832Z,17.27
2022-11-14T17:26:28.313Z,17.40
2022-11-14T17:27:50.055Z,16.75
2022-11-14T17:29:12.891Z,18.63
2022-11-14T17:30:34.398Z,20.42
2022-11-14T17:31:56.562Z,16.35
2022-11-14T17:33:18.512Z,15.75
2022-11-14T17:34:39.887Z,16.10
2022-11-14T17:36:10.249Z,14.63
2022-11-14T17:37:32.021Z,13.05
2022-11-14T17:38:53.524Z,19.75
2022-11-14T17:40:15.821Z,25.63
2022-11-14T17:41:38.652Z,17.63
2022-11-14T17:43:00.194Z,13.80
2022-11-14T17:44:21.795Z,18.42
2022-11-14T17:45:53.247Z,17.50
2022-11-14T17:47:14.595Z,19.88
2022-11-14T17:48:36.161Z,16.88
2022-11-14T17:49:57.923Z,20.95
2022-11-14T17:51:19.545Z,14.55
2022-11-14T17:52:41.778Z,20.08
2022-11-14T17:54:03.554Z,17.95
2022-11-14T17:55:25.081Z,16.42
2022-11-14T17:56:50.890Z,16.63
2022-11-14T17:58:15.158Z,15.82
2022-11-14T17:59:38.906Z,16.52
2022-11-14T18:01:00.677Z,17.75
2022-11-14T18:02:22.222Z,17.63
2022-11-14T18:03:44.533Z,16.35
2022-11-14T18:05:06.786Z,19.23
2022-11-14T18:06:28.350Z,18.45
2022-11-14T18:07:50.674Z,17.38
2022-11-14T18:09:14.472Z,20.88
2022-11-14T18:10:36.337Z,17.92
2022-11-14T18:11:57.806Z,17.50
2022-11-14T18:13:19.489Z,18.98
2022-11-14T18:14:41.154Z,19.75
2022-11-14T18:16:06.009Z,19.80
2022-11-14T18:17:28.007Z,18.98
2022-11-14T18:18:51.416Z,19.98
2022-11-14T18:20:13.073Z,17.55
2022-11-14T18:21:34.616Z,20.77
2022-11-14T18:22:56.662Z,18.27
2022-11-14T18:24:18.429Z,20.83
2022-11-14T18:25:40.129Z,19.80
2022-11-14T18:27:02.076Z,18.90
2022-11-14T18:28:23.507Z,17.45
2022-11-14T18:29:45.441Z,18.05
2022-11-14T18:31:10.775Z,21.15
2022-11-14T18:32:33.084Z,18.70
2022-11-14T18:33:55.108Z,16.90
2022-11-14T18:35:16.654Z,16.52
2022-11-14T18:36:38.169Z,16.38
2022-11-14T18:38:00.288Z,14.38
2022-11-14T18:39:22.208Z,16.65
2022-11-14T18:40:44.537Z,15.70
2022-11-14T18:42:06.208Z,16.25
2022-11-14T18:43:29.643Z,20.70
2022-11-14T18:44:51.955Z,17.73
2022-11-14T18:46:18.940Z,16.08
2022-11-14T18:47:40.784Z,21.10
2022-11-14T18:49:02.620Z,16.25
2022-11-14T18:50:24.144Z,17.77
2022-11-14T18:51:46.133Z,16.23
2022-11-14T18:53:08.803Z,15.70
2022-11-14T18:54:30.739Z,17.60
2022-11-14T18:55:53.274Z,14.63
2022-11-14T18:57:14.980Z,18.38
2022-11-14T18:58:39.819Z,17.98
2022-11-14T19:00:01.665Z,15.25
2022-11-14T19:01:29.339Z,19.58
2022-11-14T19:02:51.822Z,16.60